sensor_id;sensor_type;location;lat;lon;timestamp;temperature;humidity
13164;DHT22;6647;53.688;10.746;2022-12-07T00:00:21;2.60;62.60
13164;DHT22;6647;53.688;10.746;2022-12-07T00:01:43;2.60;63.40
13164;DHT22;6647;53.688;10.746;2022-12-07T00:03:04;2.60;65.10
13164;DHT22;6647;53.688;10.746;2022-12-07T00:04:24;2.60;68.40
13164;DHT22;6647;53.688;10.746;2022-12-07T00:05:45;2.60;74.40
13164;DHT22;6647;53.688;10.746;2022-12-07T00:07:06;2.60;79.20
13164;DHT22;6647;53.688;10.746;2022-12-07T00:08:27;2.60;78.70
13164;DHT22;6647;53.688;10.746;2022-12-07T00:09:48;2.60;81.00
13164;DHT22;6647;53.688;10.746;2022-12-07T00:11:17;2.60;83.20
13164;DHT22;6647;53.688;10.746;2022-12-07T00:12:38;2.70;83.90
13164;DHT22;6647;53.688;10.746;2022-12-07T00:14:01;2.60;87.80
13164;DHT22;6647;53.688;10.746;2022-12-07T00:15:22;2.60;92.10
13164;DHT22;6647;53.688;10.746;2022-12-07T00:16:44;2.60;95.40
13164;DHT22;6647;53.688;10.746;2022-12-07T00:18:05;2.60;98.90
13164;DHT22;6647;53.688;10.746;2022-12-07T00:19:26;2.70;99.00
13164;DHT22;6647;53.688;10.746;2022-12-07T00:20:47;2.60;99.90
13164;DHT22;6647;53.688;10.746;2022-12-07T00:22:08;2.60;99.90
13164;DHT22;6647;53.688;10.746;2022-12-07T00:23:29;2.70;99.90
13164;DHT22;6647;53.688;10.746;2022-12-07T00:24:50;2.70;99.90
13164;DHT22;6647;53.688;10.746;2022-12-07T00:26:22;2.70;99.90
13164;DHT22;6647;53.688;10.746;2022-12-07T00:27:43;2.70;99.90
13164;DHT22;6647;53.688;10.746;2022-12-07T00:29:16;2.70;99.90
13164;DHT22;6647;53.688;10.746;2022-12-07T00:30:37;2.70;99.90
13164;DHT22;6647;53.688;10.746;2022-12-07T00:31:58;2.70;99.90
13164;DHT22;6647;53.688;10.746;2022-12-07T00:33:18;2.70;99.90
13164;DHT22;6647;53.688;10.746;2022-12-07T00:34:39;2.70;99.90
13164;DHT22;6647;53.688;10.746;2022-12-07T00:36:03;2.70;99.90
13164;DHT22;6647;53.688;10.746;2022-12-07T00:37:24;2.70;99.90
13164;DHT22;6647;53.688;10.746;2022-12-07T00:38:45;2.70;99.90
13164;DHT22;6647;53.688;10.746;2022-12-07T00:40:06;2.70;99.90
13164;DHT22;6647;53.688;10.746;2022-12-07T00:41:28;2.70;99.90
13164;DHT22;6647;53.688;10.746;2022-12-07T00:42:49;2.80;99.90
13164;DHT22;6647;53.688;10.746;2022-12-07T00:44:10;2.70;99.90
13164;DHT22;6647;53.688;10.746;2022-12-07T00:45:31;2.70;99.90
13164;DHT22;6647;53.688;10.746;2022-12-07T00:46:52;2.70;99.90
13164;DHT22;6647;53.688;10.746;2022-12-07T00:48:13;2.70;99.90
13164;DHT22;6647;53.688;10.746;2022-12-07T00:49:34;2.70;99.90
13164;DHT22;6647;53.688;10.746;2022-12-07T00:50:55;2.70;99.90
13164;DHT22;6647;53.688;10.746;2022-12-07T00:52:16;2.70;99.90
13164;DHT22;6647;53.688;10.746;2022-12-07T00:53:37;2.70;99.90
13164;DHT22;6647;53.688;10.746;2022-12-07T00:54:58;2.70;99.90
13164;DHT22;6647;53.688;10.746;2022-12-07T00:56:27;2.70;99.90
13164;DHT22;6647;53.688;10.746;2022-12-07T00:57:48;2.70;99.90
13164;DHT22;6647;53.688;10.746;2022-12-07T00:59:12;2.70;99.90
13164;DHT22;6647;53.688;10.746;2022-12-07T01:00:36;2.70;99.90
13164;DHT22;6647;53.688;10.746;2022-12-07T01:01:57;2.70;99.90
13164;DHT22;6647;53.688;10.746;2022-12-07T01:03:18;2.70;99.90
13164;DHT22;6647;53.688;10.746;2022-12-07T01:04:39;2.70;99.90
13164;DHT22;6647;53.688;10.746;2022-12-07T01:06:00;2.70;99.90
13164;DHT22;6647;53.688;10.746;2022-12-07T01:07:21;2.70;99.90
13164;DHT22;6647;53.688;10.746;2022-12-07T01:08:42;2.70;99.90
13164;DHT22;6647;53.688;10.746;2022-12-07T01:10:03;2.70;99.90
13164;DHT22;6647;53.688;10.746;2022-12-07T01:11:27;2.80;99.90
13164;DHT22;6647;53.688;10.746;2022-12-07T01:12:48;2.80;99.90
13164;DHT22;6647;53.688;10.746;2022-12-07T01:14:09;2.80;99.90
13164;DHT22;6647;53.688;10.746;2022-12-07T01:15:30;2.80;99.90
13164;DHT22;6647;53.688;10.746;2022-12-07T01:16:51;2.80;99.90
13164;DHT22;6647;53.688;10.746;2022-12-07T01:18:12;2.80;99.90
13164;DHT22;6647;53.688;10.746;2022-12-07T01:19:33;2.80;99.90
13164;DHT22;6647;53.688;10.746;2022-12-07T01:21:01;2.80;99.90
13164;DHT22;6647;53.688;10.746;2022-12-07T01:22:22;2.80;99.90
13164;DHT22;6647;53.688;10.746;2022-12-07T01:23:44;2.80;99.90
13164;DHT22;6647;53.688;10.746;2022-12-07T01:25:06;2.80;99.90
13164;DHT22;6647;53.688;10.746;2022-12-07T01:26:27;2.80;99.90
13164;DHT22;6647;53.688;10.746;2022-12-07T01:27:48;2.80;99.90
13164;DHT22;6647;53.688;10.746;2022-12-07T01:29:09;2.80;99.90
13164;DHT22;6647;53.688;10.746;2022-12-07T01:30:30;2.90;99.90
13164;DHT22;6647;53.688;10.746;2022-12-07T01:31:51;2.90;99.90
13164;DHT22;6647;53.688;10.746;2022-12-07T01:33:11;2.90;99.90
13164;DHT22;6647;53.688;10.746;2022-12-07T01:34:32;2.90;99.90
13164;DHT22;6647;53.688;10.746;2022-12-07T01:35:53;2.90;99.90
13164;DHT22;6647;53.688;10.746;2022-12-07T01:37:14;2.90;99.90
13164;DHT22;6647;53.688;10.746;2022-12-07T01:38:35;2.90;99.90
13164;DHT22;6647;53.688;10.746;2022-12-07T01:39:56;2.90;99.90
13164;DHT22;6647;53.688;10.746;2022-12-07T01:41:17;2.90;99.90
13164;DHT22;6647;53.688;10.746;2022-12-07T01:42:38;3.00;99.90
13164;DHT22;6647;53.688;10.746;2022-12-07T01:45:39;3.00;99.90
13164;DHT22;6647;53.688;10.746;2022-12-07T01:47:03;3.00;99.90
13164;DHT22;6647;53.688;10.746;2022-12-07T01:48:33;3.00;99.90
13164;DHT22;6647;53.688;10.746;2022-12-07T01:49:54;3.10;99.90
13164;DHT22;6647;53.688;10.746;2022-12-07T01:51:15;3.10;99.90
13164;DHT22;6647;53.688;10.746;2022-12-07T01:52:37;3.10;99.90
13164;DHT22;6647;53.688;10.746;2022-12-07T01:53:59;3.10;99.90
13164;DHT22;6647;53.688;10.746;2022-12-07T01:55:21;3.10;99.90
13164;DHT22;6647;53.688;10.746;2022-12-07T01:56:47;3.10;99.90
13164;DHT22;6647;53.688;10.746;2022-12-07T01:58:10;3.10;99.90
13164;DHT22;6647;53.688;10.746;2022-12-07T01:59:33;3.10;99.90
13164;DHT22;6647;53.688;10.746;2022-12-07T02:00:54;3.20;99.90
13164;DHT22;6647;53.688;10.746;2022-12-07T02:02:23;3.20;99.90
13164;DHT22;6647;53.688;10.746;2022-12-07T02:03:45;3.20;99.90
13164;DHT22;6647;53.688;10.746;2022-12-07T02:05:06;3.20;99.90
13164;DHT22;6647;53.688;10.746;2022-12-07T02:06:27;3.20;99.90
13164;DHT22;6647;53.688;10.746;2022-12-07T02:07:51;3.20;99.90
13164;DHT22;6647;53.688;10.746;2022-12-07T02:09:13;3.20;99.90
13164;DHT22;6647;53.688;10.746;2022-12-07T02:10:34;3.20;99.90
13164;DHT22;6647;53.688;10.746;2022-12-07T02:11:55;3.20;99.90
13164;DHT22;6647;53.688;10.746;2022-12-07T02:13:22;3.20;99.90
13164;DHT22;6647;53.688;10.746;2022-12-07T02:14:44;3.20;99.90
13164;DHT22;6647;53.688;10.746;2022-12-07T02:18:14;3.30;99.90
13164;DHT22;6647;53.688;10.746;2022-12-07T02:21:38;3.30;99.90
13164;DHT22;6647;53.688;10.746;2022-12-07T02:28:35;3.40;99.90
13164;DHT22;6647;53.688;10.746;2022-12-07T02:30:14;3.40;99.90
13164;DHT22;6647;53.688;10.746;2022-12-07T02:31:37;3.40;99.90
13164;DHT22;6647;53.688;10.746;2022-12-07T02:33:18;3.40;99.90
13164;DHT22;6647;53.688;10.746;2022-12-07T02:34:53;3.30;99.90
13164;DHT22;6647;53.688;10.746;2022-12-07T02:36:28;3.30;99.90
13164;DHT22;6647;53.688;10.746;2022-12-07T02:37:58;3.40;99.90
13164;DHT22;6647;53.688;10.746;2022-12-07T02:39:50;3.40;99.90
13164;DHT22;6647;53.688;10.746;2022-12-07T02:41:20;3.40;99.90
13164;DHT22;6647;53.688;10.746;2022-12-07T02:42:49;3.40;99.90
13164;DHT22;6647;53.688;10.746;2022-12-07T02:44:15;3.40;99.90
13164;DHT22;6647;53.688;10.746;2022-12-07T02:45:40;3.40;99.90
13164;DHT22;6647;53.688;10.746;2022-12-07T02:47:05;3.40;99.90
13164;DHT22;6647;53.688;10.746;2022-12-07T02:48:27;3.40;99.90
13164;DHT22;6647;53.688;10.746;2022-12-07T02:49:49;3.50;99.90
13164;DHT22;6647;53.688;10.746;2022-12-07T02:51:11;3.50;99.90
13164;DHT22;6647;53.688;10.746;2022-12-07T02:52:32;3.50;99.90
13164;DHT22;6647;53.688;10.746;2022-12-07T02:53:53;3.50;99.90
13164;DHT22;6647;53.688;10.746;2022-12-07T02:55:16;3.50;99.90
13164;DHT22;6647;53.688;10.746;2022-12-07T02:56:48;3.50;99.90
13164;DHT22;6647;53.688;10.746;2022-12-07T02:58:31;3.50;99.90
13164;DHT22;6647;53.688;10.746;2022-12-07T03:00:11;3.50;99.90
13164;DHT22;6647;53.688;10.746;2022-12-07T03:03:14;3.50;99.90
13164;DHT22;6647;53.688;10.746;2022-12-07T03:06:36;3.50;99.90
13164;DHT22;6647;53.688;10.746;2022-12-07T03:11:20;3.50;99.90
13164;DHT22;6647;53.688;10.746;2022-12-07T03:12:48;3.50;99.90
13164;DHT22;6647;53.688;10.746;2022-12-07T03:16:28;3.50;99.90
13164;DHT22;6647;53.688;10.746;2022-12-07T03:17:52;3.50;99.90
13164;DHT22;6647;53.688;10.746;2022-12-07T03:19:16;3.50;99.90
13164;DHT22;6647;53.688;10.746;2022-12-07T03:20:39;3.40;99.90
13164;DHT22;6647;53.688;10.746;2022-12-07T03:22:07;3.50;99.90
13164;DHT22;6647;53.688;10.746;2022-12-07T03:23:33;3.40;99.90
13164;DHT22;6647;53.688;10.746;2022-12-07T03:24:59;3.40;99.90
13164;DHT22;6647;53.688;10.746;2022-12-07T03:26:24;3.40;99.90
13164;DHT22;6647;53.688;10.746;2022-12-07T03:28:06;3.40;99.90
13164;DHT22;6647;53.688;10.746;2022-12-07T03:29:31;3.40;99.90
13164;DHT22;6647;53.688;10.746;2022-12-07T03:30:58;3.40;99.90
13164;DHT22;6647;53.688;10.746;2022-12-07T03:32:33;3.40;99.90
13164;DHT22;6647;53.688;10.746;2022-12-07T03:34:29;3.30;99.90
13164;DHT22;6647;53.688;10.746;2022-12-07T03:36:15;3.30;99.90
13164;DHT22;6647;53.688;10.746;2022-12-07T03:39:44;3.30;99.90
13164;DHT22;6647;53.688;10.746;2022-12-07T03:41:27;3.30;99.90
13164;DHT22;6647;53.688;10.746;2022-12-07T03:42:50;3.30;99.90
13164;DHT22;6647;53.688;10.746;2022-12-07T03:44:12;3.30;99.90
13164;DHT22;6647;53.688;10.746;2022-12-07T03:45:43;3.30;99.90
13164;DHT22;6647;53.688;10.746;2022-12-07T03:49:02;3.30;99.90
13164;DHT22;6647;53.688;10.746;2022-12-07T03:50:30;3.30;99.90
13164;DHT22;6647;53.688;10.746;2022-12-07T03:52:08;3.30;99.90
13164;DHT22;6647;53.688;10.746;2022-12-07T03:53:44;3.30;99.90
13164;DHT22;6647;53.688;10.746;2022-12-07T03:56:34;3.30;99.90
13164;DHT22;6647;53.688;10.746;2022-12-07T03:58:01;3.30;99.90
13164;DHT22;6647;53.688;10.746;2022-12-07T03:59:23;3.30;99.90
13164;DHT22;6647;53.688;10.746;2022-12-07T04:00:45;3.30;99.90
13164;DHT22;6647;53.688;10.746;2022-12-07T04:02:07;3.30;99.90
13164;DHT22;6647;53.688;10.746;2022-12-07T04:03:28;3.30;99.90
13164;DHT22;6647;53.688;10.746;2022-12-07T04:04:49;3.30;99.90
13164;DHT22;6647;53.688;10.746;2022-12-07T04:06:10;3.20;99.90
13164;DHT22;6647;53.688;10.746;2022-12-07T04:07:31;3.20;99.90
13164;DHT22;6647;53.688;10.746;2022-12-07T04:08:52;3.20;99.90
13164;DHT22;6647;53.688;10.746;2022-12-07T04:10:13;3.20;99.90
13164;DHT22;6647;53.688;10.746;2022-12-07T04:11:34;3.20;99.90
13164;DHT22;6647;53.688;10.746;2022-12-07T04:12:55;3.20;99.90
13164;DHT22;6647;53.688;10.746;2022-12-07T04:14:16;3.10;99.90
13164;DHT22;6647;53.688;10.746;2022-12-07T04:15:40;3.10;99.90
13164;DHT22;6647;53.688;10.746;2022-12-07T04:17:01;3.10;99.90
13164;DHT22;6647;53.688;10.746;2022-12-07T04:18:21;3.10;99.90
13164;DHT22;6647;53.688;10.746;2022-12-07T04:19:42;3.00;99.90
13164;DHT22;6647;53.688;10.746;2022-12-07T04:21:03;3.00;99.90
13164;DHT22;6647;53.688;10.746;2022-12-07T04:22:24;3.00;99.90
13164;DHT22;6647;53.688;10.746;2022-12-07T04:23:45;3.00;99.90
13164;DHT22;6647;53.688;10.746;2022-12-07T04:25:06;3.00;99.90
13164;DHT22;6647;53.688;10.746;2022-12-07T04:26:27;3.00;99.90
13164;DHT22;6647;53.688;10.746;2022-12-07T04:27:48;3.00;99.90
13164;DHT22;6647;53.688;10.746;2022-12-07T04:29:09;3.00;99.90
13164;DHT22;6647;53.688;10.746;2022-12-07T04:30:30;3.00;99.90
13164;DHT22;6647;53.688;10.746;2022-12-07T04:31:51;3.00;99.90
13164;DHT22;6647;53.688;10.746;2022-12-07T04:33:12;3.00;99.90
13164;DHT22;6647;53.688;10.746;2022-12-07T04:34:33;3.00;99.90
13164;DHT22;6647;53.688;10.746;2022-12-07T04:35:54;3.00;99.90
13164;DHT22;6647;53.688;10.746;2022-12-07T04:37:15;3.00;99.90
13164;DHT22;6647;53.688;10.746;2022-12-07T04:38:35;3.00;99.90
13164;DHT22;6647;53.688;10.746;2022-12-07T04:39:56;3.00;99.90
13164;DHT22;6647;53.688;10.746;2022-12-07T04:41:17;2.90;99.90
13164;DHT22;6647;53.688;10.746;2022-12-07T04:42:38;2.90;99.90
13164;DHT22;6647;53.688;10.746;2022-12-07T04:44:03;2.90;99.90
13164;DHT22;6647;53.688;10.746;2022-12-07T04:45:27;2.80;99.90
13164;DHT22;6647;53.688;10.746;2022-12-07T04:46:49;2.90;99.90
13164;DHT22;6647;53.688;10.746;2022-12-07T04:48:10;2.80;99.90
13164;DHT22;6647;53.688;10.746;2022-12-07T04:49:31;2.80;99.90
13164;DHT22;6647;53.688;10.746;2022-12-07T04:50:52;2.80;99.90
13164;DHT22;6647;53.688;10.746;2022-12-07T04:52:13;2.80;99.90
13164;DHT22;6647;53.688;10.746;2022-12-07T04:53:33;2.80;99.90
13164;DHT22;6647;53.688;10.746;2022-12-07T04:54:54;2.80;99.90
13164;DHT22;6647;53.688;10.746;2022-12-07T04:56:16;2.80;99.90
13164;DHT22;6647;53.688;10.746;2022-12-07T04:57:37;2.80;99.90
13164;DHT22;6647;53.688;10.746;2022-12-07T04:58:58;2.80;99.90
13164;DHT22;6647;53.688;10.746;2022-12-07T05:00:19;2.80;99.90
13164;DHT22;6647;53.688;10.746;2022-12-07T05:01:40;2.80;99.90
13164;DHT22;6647;53.688;10.746;2022-12-07T05:03:01;2.80;99.90
13164;DHT22;6647;53.688;10.746;2022-12-07T05:04:22;2.80;99.90
13164;DHT22;6647;53.688;10.746;2022-12-07T05:05:43;2.80;99.90
13164;DHT22;6647;53.688;10.746;2022-12-07T05:07:03;2.70;99.90
13164;DHT22;6647;53.688;10.746;2022-12-07T05:08:24;2.70;99.90
13164;DHT22;6647;53.688;10.746;2022-12-07T05:09:45;2.70;99.90
13164;DHT22;6647;53.688;10.746;2022-12-07T05:11:07;2.70;99.90
13164;DHT22;6647;53.688;10.746;2022-12-07T05:12:28;2.60;99.90
13164;DHT22;6647;53.688;10.746;2022-12-07T05:13:49;2.60;99.90
13164;DHT22;6647;53.688;10.746;2022-12-07T05:15:10;2.70;99.90
13164;DHT22;6647;53.688;10.746;2022-12-07T05:16:31;2.60;99.90
13164;DHT22;6647;53.688;10.746;2022-12-07T05:17:52;2.70;99.90
13164;DHT22;6647;53.688;10.746;2022-12-07T05:19:13;2.60;99.90
13164;DHT22;6647;53.688;10.746;2022-12-07T05:20:34;2.60;99.90
13164;DHT22;6647;53.688;10.746;2022-12-07T05:21:55;2.60;99.90
13164;DHT22;6647;53.688;10.746;2022-12-07T05:23:16;2.60;99.90
13164;DHT22;6647;53.688;10.746;2022-12-07T05:24:37;2.60;99.90
13164;DHT22;6647;53.688;10.746;2022-12-07T05:25:57;2.50;99.90
13164;DHT22;6647;53.688;10.746;2022-12-07T05:27:19;2.50;99.90
13164;DHT22;6647;53.688;10.746;2022-12-07T05:28:40;2.50;99.90
13164;DHT22;6647;53.688;10.746;2022-12-07T05:30:02;2.50;99.90
13164;DHT22;6647;53.688;10.746;2022-12-07T05:31:23;2.50;99.90
13164;DHT22;6647;53.688;10.746;2022-12-07T05:32:44;2.50;99.90
13164;DHT22;6647;53.688;10.746;2022-12-07T05:34:05;2.40;99.90
13164;DHT22;6647;53.688;10.746;2022-12-07T05:35:26;2.40;99.90
13164;DHT22;6647;53.688;10.746;2022-12-07T05:36:47;2.40;99.90
13164;DHT22;6647;53.688;10.746;2022-12-07T05:38:11;2.40;99.90
13164;DHT22;6647;53.688;10.746;2022-12-07T05:39:32;2.30;99.90
13164;DHT22;6647;53.688;10.746;2022-12-07T05:40:53;2.30;99.90
13164;DHT22;6647;53.688;10.746;2022-12-07T05:42:14;2.30;99.90
13164;DHT22;6647;53.688;10.746;2022-12-07T05:43:35;2.40;99.90
13164;DHT22;6647;53.688;10.746;2022-12-07T05:44:56;2.30;99.90
13164;DHT22;6647;53.688;10.746;2022-12-07T05:46:16;2.30;99.90
13164;DHT22;6647;53.688;10.746;2022-12-07T05:47:37;2.20;99.90
13164;DHT22;6647;53.688;10.746;2022-12-07T05:48:58;2.20;99.90
13164;DHT22;6647;53.688;10.746;2022-12-07T05:50:20;2.20;99.90
13164;DHT22;6647;53.688;10.746;2022-12-07T05:51:41;2.20;99.90
13164;DHT22;6647;53.688;10.746;2022-12-07T05:53:02;2.10;99.90
13164;DHT22;6647;53.688;10.746;2022-12-07T05:54:22;2.10;99.90
13164;DHT22;6647;53.688;10.746;2022-12-07T05:55:44;2.10;99.90
13164;DHT22;6647;53.688;10.746;2022-12-07T05:57:05;2.10;99.90
13164;DHT22;6647;53.688;10.746;2022-12-07T05:58:25;2.10;99.90
13164;DHT22;6647;53.688;10.746;2022-12-07T06:00:05;2.20;99.90
13164;DHT22;6647;53.688;10.746;2022-12-07T06:01:26;2.20;99.90
13164;DHT22;6647;53.688;10.746;2022-12-07T06:02:47;2.10;99.90
13164;DHT22;6647;53.688;10.746;2022-12-07T06:04:08;2.10;99.90
13164;DHT22;6647;53.688;10.746;2022-12-07T06:05:29;2.10;99.90
13164;DHT22;6647;53.688;10.746;2022-12-07T06:06:50;2.10;99.90
13164;DHT22;6647;53.688;10.746;2022-12-07T06:08:11;2.10;99.90
13164;DHT22;6647;53.688;10.746;2022-12-07T06:09:33;2.10;99.90
13164;DHT22;6647;53.688;10.746;2022-12-07T06:10:54;2.10;99.90
13164;DHT22;6647;53.688;10.746;2022-12-07T06:12:35;2.10;99.90
13164;DHT22;6647;53.688;10.746;2022-12-07T06:13:57;2.10;99.90
13164;DHT22;6647;53.688;10.746;2022-12-07T06:15:18;2.00;99.90
13164;DHT22;6647;53.688;10.746;2022-12-07T06:16:39;2.10;99.90
13164;DHT22;6647;53.688;10.746;2022-12-07T06:18:00;2.00;99.90
13164;DHT22;6647;53.688;10.746;2022-12-07T06:19:21;2.00;99.90
13164;DHT22;6647;53.688;10.746;2022-12-07T06:20:42;2.00;99.90
13164;DHT22;6647;53.688;10.746;2022-12-07T06:22:03;2.00;99.90
13164;DHT22;6647;53.688;10.746;2022-12-07T06:23:25;2.00;99.90
13164;DHT22;6647;53.688;10.746;2022-12-07T06:24:46;2.00;99.90
13164;DHT22;6647;53.688;10.746;2022-12-07T06:26:06;2.00;99.90
13164;DHT22;6647;53.688;10.746;2022-12-07T06:27:27;2.00;99.90
13164;DHT22;6647;53.688;10.746;2022-12-07T06:28:48;2.00;99.90
13164;DHT22;6647;53.688;10.746;2022-12-07T06:30:09;2.00;99.90
13164;DHT22;6647;53.688;10.746;2022-12-07T06:31:30;2.00;99.90
13164;DHT22;6647;53.688;10.746;2022-12-07T06:32:52;2.00;99.90
13164;DHT22;6647;53.688;10.746;2022-12-07T06:34:15;1.90;99.90
13164;DHT22;6647;53.688;10.746;2022-12-07T06:35:36;1.90;99.90
13164;DHT22;6647;53.688;10.746;2022-12-07T06:36:57;1.90;99.90
13164;DHT22;6647;53.688;10.746;2022-12-07T06:38:18;1.90;99.90
13164;DHT22;6647;53.688;10.746;2022-12-07T06:39:39;1.90;99.90
13164;DHT22;6647;53.688;10.746;2022-12-07T06:41:00;1.90;99.90
13164;DHT22;6647;53.688;10.746;2022-12-07T06:42:21;1.90;99.90
13164;DHT22;6647;53.688;10.746;2022-12-07T06:43:42;1.90;99.90
13164;DHT22;6647;53.688;10.746;2022-12-07T06:45:03;1.80;99.90
13164;DHT22;6647;53.688;10.746;2022-12-07T06:46:25;1.80;99.90
13164;DHT22;6647;53.688;10.746;2022-12-07T06:47:46;1.80;99.90
13164;DHT22;6647;53.688;10.746;2022-12-07T06:49:07;1.80;99.90
13164;DHT22;6647;53.688;10.746;2022-12-07T06:50:28;1.80;99.90
13164;DHT22;6647;53.688;10.746;2022-12-07T06:51:49;1.80;99.90
13164;DHT22;6647;53.688;10.746;2022-12-07T06:53:09;1.80;99.90
13164;DHT22;6647;53.688;10.746;2022-12-07T06:54:30;1.80;99.90
13164;DHT22;6647;53.688;10.746;2022-12-07T06:55:51;1.80;99.90
13164;DHT22;6647;53.688;10.746;2022-12-07T06:57:12;1.80;99.90
13164;DHT22;6647;53.688;10.746;2022-12-07T06:58:33;1.70;99.90
13164;DHT22;6647;53.688;10.746;2022-12-07T06:59:54;1.80;99.90
13164;DHT22;6647;53.688;10.746;2022-12-07T07:01:17;1.80;99.90
13164;DHT22;6647;53.688;10.746;2022-12-07T07:02:38;1.80;99.90
13164;DHT22;6647;53.688;10.746;2022-12-07T07:04:00;1.80;99.90
13164;DHT22;6647;53.688;10.746;2022-12-07T07:05:21;1.80;99.90
13164;DHT22;6647;53.688;10.746;2022-12-07T07:06:42;1.80;99.90
13164;DHT22;6647;53.688;10.746;2022-12-07T07:08:03;1.80;99.90
13164;DHT22;6647;53.688;10.746;2022-12-07T07:09:25;1.80;99.90
13164;DHT22;6647;53.688;10.746;2022-12-07T07:10:46;1.80;99.90
13164;DHT22;6647;53.688;10.746;2022-12-07T07:12:07;1.80;99.90
13164;DHT22;6647;53.688;10.746;2022-12-07T07:13:28;1.80;99.90
13164;DHT22;6647;53.688;10.746;2022-12-07T07:14:49;1.80;99.90
13164;DHT22;6647;53.688;10.746;2022-12-07T07:16:10;1.80;99.90
13164;DHT22;6647;53.688;10.746;2022-12-07T07:17:31;1.80;99.90
13164;DHT22;6647;53.688;10.746;2022-12-07T07:18:52;1.80;99.90
13164;DHT22;6647;53.688;10.746;2022-12-07T07:20:13;1.80;99.90
13164;DHT22;6647;53.688;10.746;2022-12-07T07:21:33;1.80;99.90
13164;DHT22;6647;53.688;10.746;2022-12-07T07:22:54;1.80;99.90
13164;DHT22;6647;53.688;10.746;2022-12-07T07:24:16;1.80;99.90
13164;DHT22;6647;53.688;10.746;2022-12-07T07:25:37;1.80;99.90
13164;DHT22;6647;53.688;10.746;2022-12-07T07:26:58;1.80;99.90
13164;DHT22;6647;53.688;10.746;2022-12-07T07:28:19;1.80;99.90
13164;DHT22;6647;53.688;10.746;2022-12-07T07:29:40;1.80;99.90
13164;DHT22;6647;53.688;10.746;2022-12-07T07:31:01;1.80;99.90
13164;DHT22;6647;53.688;10.746;2022-12-07T07:32:22;1.80;99.90
13164;DHT22;6647;53.688;10.746;2022-12-07T07:33:42;1.80;99.90
13164;DHT22;6647;53.688;10.746;2022-12-07T07:35:04;1.80;99.90
13164;DHT22;6647;53.688;10.746;2022-12-07T07:36:25;1.80;99.90
13164;DHT22;6647;53.688;10.746;2022-12-07T07:37:46;1.80;99.90
13164;DHT22;6647;53.688;10.746;2022-12-07T07:39:07;1.80;99.90
13164;DHT22;6647;53.688;10.746;2022-12-07T07:40:28;1.80;99.90
13164;DHT22;6647;53.688;10.746;2022-12-07T07:41:52;1.80;99.90
13164;DHT22;6647;53.688;10.746;2022-12-07T07:43:12;1.80;99.90
13164;DHT22;6647;53.688;10.746;2022-12-07T07:44:34;1.80;99.90
13164;DHT22;6647;53.688;10.746;2022-12-07T07:45:55;1.80;99.90
13164;DHT22;6647;53.688;10.746;2022-12-07T07:47:15;1.80;99.90
13164;DHT22;6647;53.688;10.746;2022-12-07T07:48:36;1.80;99.90
13164;DHT22;6647;53.688;10.746;2022-12-07T07:49:57;1.80;99.90
13164;DHT22;6647;53.688;10.746;2022-12-07T07:51:18;1.80;99.90
13164;DHT22;6647;53.688;10.746;2022-12-07T07:52:40;1.80;99.90
13164;DHT22;6647;53.688;10.746;2022-12-07T07:54:00;1.80;99.90
13164;DHT22;6647;53.688;10.746;2022-12-07T07:55:21;1.80;99.90
13164;DHT22;6647;53.688;10.746;2022-12-07T07:56:42;1.70;99.90
13164;DHT22;6647;53.688;10.746;2022-12-07T07:58:03;1.80;99.90
13164;DHT22;6647;53.688;10.746;2022-12-07T07:59:24;1.70;99.90
13164;DHT22;6647;53.688;10.746;2022-12-07T08:00:45;1.80;99.90
13164;DHT22;6647;53.688;10.746;2022-12-07T08:02:13;1.70;99.90
13164;DHT22;6647;53.688;10.746;2022-12-07T08:03:35;1.70;99.90
13164;DHT22;6647;53.688;10.746;2022-12-07T08:04:56;1.70;99.90
13164;DHT22;6647;53.688;10.746;2022-12-07T08:06:17;1.80;99.90
13164;DHT22;6647;53.688;10.746;2022-12-07T08:07:38;1.80;99.90
13164;DHT22;6647;53.688;10.746;2022-12-07T08:08:59;1.80;99.90
13164;DHT22;6647;53.688;10.746;2022-12-07T08:10:20;1.70;99.90
13164;DHT22;6647;53.688;10.746;2022-12-07T08:11:41;1.70;99.90
13164;DHT22;6647;53.688;10.746;2022-12-07T08:13:02;1.70;99.90
13164;DHT22;6647;53.688;10.746;2022-12-07T08:14:32;1.70;99.90
13164;DHT22;6647;53.688;10.746;2022-12-07T08:15:53;1.70;99.90
13164;DHT22;6647;53.688;10.746;2022-12-07T08:17:14;1.70;99.90
13164;DHT22;6647;53.688;10.746;2022-12-07T08:18:39;1.70;99.90
13164;DHT22;6647;53.688;10.746;2022-12-07T08:20:00;1.70;99.90
13164;DHT22;6647;53.688;10.746;2022-12-07T08:21:21;1.70;99.90
13164;DHT22;6647;53.688;10.746;2022-12-07T08:22:42;1.70;99.90
13164;DHT22;6647;53.688;10.746;2022-12-07T08:24:03;1.70;99.90
13164;DHT22;6647;53.688;10.746;2022-12-07T08:25:24;1.70;99.90
13164;DHT22;6647;53.688;10.746;2022-12-07T08:26:45;1.70;99.90
13164;DHT22;6647;53.688;10.746;2022-12-07T08:28:07;1.70;99.90
13164;DHT22;6647;53.688;10.746;2022-12-07T08:29:28;1.80;99.90
13164;DHT22;6647;53.688;10.746;2022-12-07T08:30:49;1.70;99.90
13164;DHT22;6647;53.688;10.746;2022-12-07T08:32:10;1.80;99.90
13164;DHT22;6647;53.688;10.746;2022-12-07T08:33:31;1.80;99.90
13164;DHT22;6647;53.688;10.746;2022-12-07T08:34:52;1.80;99.90
13164;DHT22;6647;53.688;10.746;2022-12-07T08:36:13;1.80;99.90
13164;DHT22;6647;53.688;10.746;2022-12-07T08:37:34;1.80;99.90
13164;DHT22;6647;53.688;10.746;2022-12-07T08:38:55;1.80;99.90
13164;DHT22;6647;53.688;10.746;2022-12-07T08:40:16;1.80;99.90
13164;DHT22;6647;53.688;10.746;2022-12-07T08:41:39;1.80;99.90
13164;DHT22;6647;53.688;10.746;2022-12-07T08:43:00;1.80;99.90
13164;DHT22;6647;53.688;10.746;2022-12-07T08:44:21;1.90;99.90
13164;DHT22;6647;53.688;10.746;2022-12-07T08:45:42;1.90;99.90
13164;DHT22;6647;53.688;10.746;2022-12-07T08:47:05;1.90;99.90
13164;DHT22;6647;53.688;10.746;2022-12-07T08:48:27;1.90;99.90
13164;DHT22;6647;53.688;10.746;2022-12-07T08:49:50;1.90;99.90
13164;DHT22;6647;53.688;10.746;2022-12-07T08:51:13;1.90;99.90
13164;DHT22;6647;53.688;10.746;2022-12-07T08:52:34;1.90;99.90
13164;DHT22;6647;53.688;10.746;2022-12-07T08:53:58;1.90;99.90
13164;DHT22;6647;53.688;10.746;2022-12-07T08:55:20;1.90;99.90
13164;DHT22;6647;53.688;10.746;2022-12-07T08:56:42;1.90;99.90
13164;DHT22;6647;53.688;10.746;2022-12-07T08:58:03;1.90;99.90
13164;DHT22;6647;53.688;10.746;2022-12-07T08:59:24;2.00;99.90
13164;DHT22;6647;53.688;10.746;2022-12-07T09:00:45;2.00;99.90
13164;DHT22;6647;53.688;10.746;2022-12-07T09:02:06;2.00;99.90
13164;DHT22;6647;53.688;10.746;2022-12-07T09:03:28;2.00;99.90
13164;DHT22;6647;53.688;10.746;2022-12-07T09:04:49;2.10;99.90
13164;DHT22;6647;53.688;10.746;2022-12-07T09:06:10;2.10;99.90
13164;DHT22;6647;53.688;10.746;2022-12-07T09:07:32;2.10;99.90
13164;DHT22;6647;53.688;10.746;2022-12-07T09:08:58;2.10;99.90
13164;DHT22;6647;53.688;10.746;2022-12-07T09:10:19;2.10;99.90
13164;DHT22;6647;53.688;10.746;2022-12-07T09:11:40;2.10;99.90
13164;DHT22;6647;53.688;10.746;2022-12-07T09:13:01;2.10;99.90
13164;DHT22;6647;53.688;10.746;2022-12-07T09:14:22;2.10;99.90
13164;DHT22;6647;53.688;10.746;2022-12-07T09:15:43;2.20;99.90